createdAt,value
2023-05-07T00:00:16.452Z,8.86
2023-05-07T00:02:45.778Z,8.74
2023-05-07T00:05:15.706Z,8.84
2023-05-07T00:07:45.050Z,8.73
2023-05-07T00:10:14.410Z,8.75
2023-05-07T00:12:43.773Z,8.75
2023-05-07T00:15:14.380Z,8.79
2023-05-07T00:17:43.595Z,8.77
2023-05-07T00:20:13.811Z,8.79
2023-05-07T00:22:43.001Z,8.77
2023-05-07T00:25:12.299Z,8.81
2023-05-07T00:27:41.382Z,8.92
2023-05-07T00:30:11.643Z,8.82
2023-05-07T00:32:42.432Z,8.82
2023-05-07T00:35:12.043Z,8.79
2023-05-07T00:37:41.473Z,8.79
2023-05-07T00:40:11.453Z,8.77
2023-05-07T00:42:40.795Z,8.84
2023-05-07T00:45:11.780Z,8.78
2023-05-07T00:47:42.756Z,8.74
2023-05-07T00:50:13.675Z,8.74
2023-05-07T00:52:43.621Z,8.75
2023-05-07T00:55:14.050Z,8.74
2023-05-07T00:57:44.009Z,8.75
2023-05-07T01:00:14.640Z,8.73
2023-05-07T01:02:46.106Z,8.71
2023-05-07T01:05:18.502Z,8.69
2023-05-07T01:07:49.327Z,8.79
2023-05-07T01:10:19.280Z,8.68
2023-05-07T01:12:50.551Z,8.81
2023-05-07T01:15:20.317Z,8.73
2023-05-07T01:17:50.937Z,8.71
2023-05-07T01:20:30.650Z,8.76
2023-05-07T01:23:02.731Z,8.68
2023-05-07T01:25:32.493Z,8.69
2023-05-07T01:28:03.604Z,8.63
2023-05-07T01:30:38.133Z,8.64
2023-05-07T01:33:15.322Z,8.66
2023-05-07T01:35:47.381Z,8.58
2023-05-07T01:38:18.266Z,8.67
2023-05-07T01:40:47.705Z,8.64
2023-05-07T01:43:16.967Z,8.62
2023-05-07T01:45:46.848Z,8.55
2023-05-07T01:48:17.220Z,8.52
2023-05-07T01:50:47.039Z,8.60
2023-05-07T01:53:17.710Z,8.58
2023-05-07T01:55:46.902Z,8.49
2023-05-07T01:58:16.094Z,8.58
2023-05-07T02:00:45.234Z,8.65
2023-05-07T02:03:14.474Z,8.53
2023-05-07T02:05:55.105Z,8.60
2023-05-07T02:08:32.920Z,8.70
2023-05-07T02:11:02.764Z,8.51
2023-05-07T02:13:36.726Z,8.53
2023-05-07T02:16:06.961Z,8.52
2023-05-07T02:18:36.723Z,8.60
2023-05-07T02:21:05.978Z,8.62
2023-05-07T02:23:36.698Z,8.62
2023-05-07T02:26:06.828Z,8.52
2023-05-07T02:28:36.811Z,8.56
2023-05-07T02:31:07.831Z,8.50
2023-05-07T02:33:37.802Z,8.56
2023-05-07T02:36:10.476Z,8.65
2023-05-07T02:38:47.134Z,8.67
2023-05-07T02:41:16.309Z,8.64
2023-05-07T02:43:45.406Z,8.61
2023-05-07T02:46:15.082Z,8.57
2023-05-07T02:48:48.968Z,8.60
2023-05-07T02:51:19.789Z,8.64
2023-05-07T02:53:50.435Z,8.50
2023-05-07T02:56:19.520Z,8.53
2023-05-07T02:58:48.642Z,8.66
2023-05-07T03:01:18.863Z,8.56
2023-05-07T03:04:00.770Z,8.49
2023-05-07T03:06:29.936Z,8.61
2023-05-07T03:09:00.465Z,8.47
2023-05-07T03:11:29.763Z,8.48
2023-05-07T03:13:58.998Z,8.47
2023-05-07T03:16:28.453Z,8.47
2023-05-07T03:18:57.671Z,8.50
2023-05-07T03:21:27.424Z,8.54
2023-05-07T03:23:56.987Z,8.50
2023-05-07T03:26:27.555Z,8.54
2023-05-07T03:28:57.205Z,8.48
2023-05-07T03:31:26.379Z,8.53
2023-05-07T03:33:57.695Z,8.59
2023-05-07T03:36:27.700Z,8.53
2023-05-07T03:38:57.844Z,8.50
2023-05-07T03:41:31.636Z,8.55
2023-05-07T03:44:00.678Z,8.53
2023-05-07T03:46:29.894Z,8.55
2023-05-07T03:48:59.115Z,8.53
2023-05-07T03:51:28.455Z,8.67
2023-05-07T03:53:58.112Z,8.53
2023-05-07T03:56:29.713Z,8.56
2023-05-07T03:59:00.451Z,8.57
2023-05-07T04:01:29.615Z,8.63
2023-05-07T04:03:59.739Z,8.69
2023-05-07T04:06:29.642Z,8.66
2023-05-07T04:08:58.764Z,8.65
2023-05-07T04:11:28.297Z,8.63
2023-05-07T04:13:59.405Z,8.65
2023-05-07T04:16:28.623Z,8.73
2023-05-07T04:18:57.736Z,8.68
2023-05-07T04:21:27.433Z,8.66
2023-05-07T04:23:58.276Z,8.65
2023-05-07T04:26:27.424Z,8.62
2023-05-07T04:28:58.678Z,8.74
2023-05-07T04:31:28.059Z,8.76
2023-05-07T04:33:58.009Z,8.72
2023-05-07T04:36:28.506Z,8.67
2023-05-07T04:39:02.540Z,8.71
2023-05-07T04:41:31.684Z,8.66
2023-05-07T04:44:02.724Z,8.70
2023-05-07T04:46:33.722Z,8.74
2023-05-07T04:49:02.997Z,8.78
2023-05-07T04:51:33.799Z,8.69
2023-05-07T04:54:03.188Z,8.80
2023-05-07T04:56:33.650Z,8.72
2023-05-07T04:59:05.091Z,8.76
2023-05-07T05:01:34.254Z,8.78
2023-05-07T05:04:03.577Z,8.78
2023-05-07T05:06:33.163Z,8.80
2023-05-07T05:09:05.848Z,8.79
2023-05-07T05:11:36.089Z,8.85
2023-05-07T05:14:06.595Z,8.92
2023-05-07T05:16:35.892Z,8.99
2023-05-07T05:19:05.321Z,8.99
2023-05-07T05:21:37.467Z,8.87
2023-05-07T05:24:10.739Z,8.95
2023-05-07T05:26:39.930Z,9.03
2023-05-07T05:29:11.249Z,9.05
2023-05-07T05:31:43.578Z,8.97
2023-05-07T05:34:13.331Z,9.08
2023-05-07T05:36:43.229Z,9.05
2023-05-07T05:39:12.405Z,9.08
2023-05-07T05:41:41.526Z,9.08
2023-05-07T05:44:12.488Z,8.99
2023-05-07T05:46:43.200Z,9.08
2023-05-07T05:49:12.318Z,9.07
2023-05-07T05:51:42.513Z,9.11
2023-05-07T05:54:11.699Z,9.02
2023-05-07T05:56:40.904Z,9.06
2023-05-07T05:59:12.140Z,9.12
2023-05-07T06:01:41.872Z,9.27
2023-05-07T06:04:11.026Z,9.16
2023-05-07T06:06:40.137Z,9.40
2023-05-07T06:09:09.481Z,9.38
2023-05-07T06:11:43.497Z,9.45
2023-05-07T06:14:15.249Z,9.33
2023-05-07T06:16:44.467Z,9.36
2023-05-07T06:19:13.712Z,9.54
2023-05-07T06:21:43.876Z,9.57
2023-05-07T06:24:13.256Z,9.61
2023-05-07T06:26:42.665Z,9.56
2023-05-07T06:29:11.813Z,9.65
2023-05-07T06:31:44.669Z,9.69
2023-05-07T06:34:16.036Z,9.50
2023-05-07T06:36:45.727Z,9.54
2023-05-07T06:39:24.621Z,9.70
2023-05-07T06:41:54.630Z,9.74
2023-05-07T06:44:30.723Z,9.70
2023-05-07T06:47:21.258Z,9.93
2023-05-07T06:49:54.273Z,9.90
2023-05-07T06:52:27.112Z,10.07
2023-05-07T06:54:57.623Z,9.88
2023-05-07T06:57:28.280Z,9.77
2023-05-07T06:59:57.457Z,9.90
2023-05-07T07:02:27.989Z,9.92
2023-05-07T07:04:57.665Z,10.09
2023-05-07T07:07:27.156Z,10.16
2023-05-07T07:09:56.450Z,10.18
2023-05-07T07:12:26.942Z,10.17
2023-05-07T07:14:56.439Z,10.13
2023-05-07T07:17:27.275Z,10.13
2023-05-07T07:19:57.857Z,10.04
2023-05-07T07:22:27.010Z,10.21
2023-05-07T07:24:56.389Z,10.06
2023-05-07T07:27:26.457Z,10.00
2023-05-07T07:29:55.624Z,10.25
2023-05-07T07:32:24.840Z,10.03
2023-05-07T07:34:55.645Z,10.36
2023-05-07T07:37:26.428Z,10.12
2023-05-07T07:39:56.889Z,10.29
2023-05-07T07:42:26.257Z,10.20
2023-05-07T07:44:55.984Z,10.15
2023-05-07T07:47:26.449Z,10.19
2023-05-07T07:49:57.889Z,10.05
2023-05-07T07:52:27.078Z,10.00
2023-05-07T07:54:56.305Z,10.44
2023-05-07T07:57:25.965Z,10.25
2023-05-07T07:59:55.181Z,10.11
2023-05-07T08:02:24.338Z,10.38
2023-05-07T08:04:53.712Z,10.43
2023-05-07T08:07:24.282Z,10.16
2023-05-07T08:09:53.544Z,10.18
2023-05-07T08:12:25.677Z,10.59
2023-05-07T08:14:54.914Z,10.36
2023-05-07T08:17:24.420Z,10.38
2023-05-07T08:19:53.922Z,10.54
2023-05-07T08:22:24.352Z,10.78
2023-05-07T08:24:54.614Z,10.97
2023-05-07T08:27:23.837Z,10.88
2023-05-07T08:29:53.422Z,10.76
2023-05-07T08:32:24.200Z,11.08
2023-05-07T08:34:53.384Z,11.02
2023-05-07T08:37:24.002Z,10.92
2023-05-07T08:39:53.366Z,10.57
2023-05-07T08:42:26.858Z,11.06
2023-05-07T08:45:02.148Z,10.61
2023-05-07T08:47:37.080Z,10.55
2023-05-07T08:50:08.753Z,10.60
2023-05-07T08:52:40.847Z,10.57
2023-05-07T08:55:12.058Z,10.78
2023-05-07T08:57:41.469Z,10.66
2023-05-07T09:00:13.670Z,11.08
2023-05-07T09:02:44.513Z,10.55
2023-05-07T09:05:13.930Z,10.75
2023-05-07T09:07:44.572Z,10.58
2023-05-07T09:10:16.397Z,10.79
2023-05-07T09:12:49.790Z,10.79
2023-05-07T09:15:20.789Z,10.75
2023-05-07T09:17:50.199Z,10.96
2023-05-07T09:20:19.342Z,10.79
2023-05-07T09:22:52.464Z,10.91
2023-05-07T09:25:31.081Z,10.81
2023-05-07T09:28:03.034Z,11.24
2023-05-07T09:30:32.801Z,11.42
2023-05-07T09:33:05.689Z,11.12
2023-05-07T09:35:36.970Z,11.20
2023-05-07T09:38:12.759Z,11.12
2023-05-07T09:40:42.148Z,11.17
2023-05-07T09:43:16.592Z,11.16
2023-05-07T09:45:52.659Z,11.41
2023-05-07T09:48:25.249Z,11.28
2023-05-07T09:50:59.714Z,11.60
2023-05-07T09:53:35.462Z,11.60
2023-05-07T09:56:07.665Z,11.45
2023-05-07T09:58:41.754Z,11.95
2023-05-07T10:01:13.709Z,11.50
2023-05-07T10:03:45.639Z,11.86
2023-05-07T10:06:15.229Z,11.75
2023-05-07T10:08:46.312Z,12.58
2023-05-07T10:11:16.618Z,11.53
2023-05-07T10:13:46.633Z,11.63
2023-05-07T10:16:16.291Z,12.08
2023-05-07T10:18:49.433Z,11.95
2023-05-07T10:21:24.863Z,12.64
2023-05-07T10:24:02.305Z,11.93
2023-05-07T10:26:36.713Z,12.59
2023-05-07T10:29:13.506Z,12.02
2023-05-07T10:31:55.105Z,12.90
2023-05-07T10:34:28.538Z,12.34
2023-05-07T10:36:59.008Z,12.65
2023-05-07T10:39:29.911Z,12.19
2023-05-07T10:42:09.304Z,12.51
2023-05-07T10:44:38.847Z,12.56
2023-05-07T10:47:13.713Z,12.90
2023-05-07T10:50:22.919Z,12.66
2023-05-07T10:53:27.036Z,12.74
2023-05-07T10:56:29.832Z,12.69
2023-05-07T10:59:41.706Z,12.39
2023-05-07T11:02:25.106Z,12.88
2023-05-07T11:05:23.091Z,13.28
2023-05-07T11:08:00.150Z,12.49
2023-05-07T11:10:53.245Z,12.33
2023-05-07T11:13:46.556Z,12.77
2023-05-07T11:16:39.761Z,13.26
2023-05-07T11:19:52.182Z,13.02
2023-05-07T11:22:41.765Z,13.31
2023-05-07T11:25:23.825Z,13.20
2023-05-07T11:28:05.715Z,13.51
2023-05-07T11:30:37.200Z,13.61
2023-05-07T11:33:08.731Z,13.69
2023-05-07T11:35:38.620Z,13.33
2023-05-07T11:38:10.621Z,13.70
2023-05-07T11:40:51.912Z,13.82
2023-05-07T11:43:21.236Z,13.34
2023-05-07T11:45:52.123Z,14.27
2023-05-07T11:48:23.017Z,14.10
2023-05-07T11:50:56.243Z,15.02
2023-05-07T11:53:28.018Z,14.83
2023-05-07T11:55:58.170Z,14.82
2023-05-07T11:58:27.963Z,15.28
2023-05-07T12:00:58.447Z,14.37
2023-05-07T12:03:29.782Z,14.47
2023-05-07T12:06:01.820Z,14.10
2023-05-07T12:08:30.890Z,13.99
2023-05-07T12:11:00.371Z,13.92
2023-05-07T12:13:29.527Z,14.62
2023-05-07T12:16:00.173Z,15.04
2023-05-07T12:18:29.832Z,15.12
2023-05-07T12:20:59.654Z,15.21
2023-05-07T12:23:28.897Z,16.03
2023-05-07T12:25:58.143Z,15.44
2023-05-07T12:28:27.354Z,15.24
2023-05-07T12:30:57.541Z,14.35
2023-05-07T12:33:29.470Z,15.56
2023-05-07T12:35:58.771Z,15.59
2023-05-07T12:38:27.839Z,15.82
2023-05-07T12:40:57.551Z,15.53
2023-05-07T12:43:28.541Z,15.21
2023-05-07T12:45:59.029Z,14.99
2023-05-07T12:48:29.479Z,15.38
2023-05-07T12:50:59.739Z,14.67
2023-05-07T12:53:30.161Z,15.34
2023-05-07T12:56:00.565Z,15.33
2023-05-07T12:58:31.314Z,15.95
2023-05-07T13:01:02.553Z,16.17
2023-05-07T13:03:35.262Z,16.48
2023-05-07T13:06:06.915Z,15.93
2023-05-07T13:08:38.442Z,15.76
2023-05-07T13:11:09.511Z,15.22
2023-05-07T13:13:40.299Z,15.23
2023-05-07T13:16:11.021Z,15.82
2023-05-07T13:18:44.725Z,16.14
2023-05-07T13:21:15.065Z,16.29
2023-05-07T13:23:44.113Z,16.18
2023-05-07T13:26:25.710Z,16.55
2023-05-07T13:28:56.096Z,15.99
2023-05-07T13:31:25.499Z,17.08
2023-05-07T13:33:57.260Z,15.91
2023-05-07T13:36:26.477Z,17.16
2023-05-07T13:38:56.659Z,17.41
2023-05-07T13:41:29.436Z,16.46
2023-05-07T13:43:59.582Z,16.93
2023-05-07T13:46:31.167Z,16.66
2023-05-07T13:49:03.365Z,17.33
2023-05-07T13:51:33.080Z,17.31
2023-05-07T13:54:02.790Z,17.82
2023-05-07T13:56:33.570Z,17.37
2023-05-07T13:59:03.854Z,18.63
2023-05-07T14:01:35.066Z,18.11
2023-05-07T14:04:07.428Z,18.29
2023-05-07T14:06:40.043Z,17.41
2023-05-07T14:09:09.129Z,17.62
2023-05-07T14:11:38.203Z,17.27
2023-05-07T14:14:07.853Z,17.28
2023-05-07T14:16:37.006Z,17.78
2023-05-07T14:19:07.449Z,17.75
2023-05-07T14:21:36.538Z,17.41
2023-05-07T14:24:06.314Z,16.84
2023-05-07T14:26:35.520Z,16.87
2023-05-07T14:29:04.871Z,16.38
2023-05-07T14:31:34.485Z,17.42
2023-05-07T14:34:03.692Z,17.16
2023-05-07T14:36:34.100Z,17.65
2023-05-07T14:39:03.409Z,18.16
2023-05-07T14:41:34.109Z,17.27
2023-05-07T14:44:04.930Z,18.33
2023-05-07T14:46:34.034Z,18.01
2023-05-07T14:49:03.844Z,17.16
2023-05-07T14:51:34.300Z,16.67
2023-05-07T14:54:04.237Z,16.09
2023-05-07T14:56:33.353Z,15.97
2023-05-07T14:59:02.476Z,16.43
2023-05-07T15:01:31.853Z,17.05
2023-05-07T15:04:01.687Z,17.24
2023-05-07T15:06:30.996Z,17.56
2023-05-07T15:09:01.710Z,17.16
2023-05-07T15:11:30.895Z,16.42
2023-05-07T15:14:00.020Z,16.29
2023-05-07T15:16:29.283Z,15.97
2023-05-07T15:18:58.586Z,16.17
2023-05-07T15:21:28.684Z,15.72
2023-05-07T15:23:57.819Z,15.77
2023-05-07T15:26:28.353Z,15.85
2023-05-07T15:28:58.279Z,16.04
2023-05-07T15:31:27.714Z,15.92
2023-05-07T15:33:57.407Z,15.77
2023-05-07T15:36:26.526Z,15.98
2023-05-07T15:38:55.704Z,15.72
2023-05-07T15:41:24.917Z,15.85
2023-05-07T15:43:55.535Z,15.99
2023-05-07T15:46:26.432Z,15.86
2023-05-07T15:48:56.560Z,15.81
2023-05-07T15:51:25.935Z,16.02
2023-05-07T15:53:55.078Z,15.84
2023-05-07T15:56:25.186Z,15.50
2023-05-07T15:58:55.910Z,15.62
2023-05-07T16:01:26.013Z,15.53
2023-05-07T16:03:55.407Z,15.97
2023-05-07T16:06:24.617Z,15.67
2023-05-07T16:08:53.664Z,15.55
2023-05-07T16:11:22.836Z,15.59
2023-05-07T16:13:51.916Z,15.57
2023-05-07T16:16:22.471Z,15.53
2023-05-07T16:18:51.577Z,15.71
2023-05-07T16:21:20.764Z,15.36
2023-05-07T16:23:50.748Z,15.28
2023-05-07T16:26:20.169Z,15.43
2023-05-07T16:28:49.669Z,15.41
2023-05-07T16:31:19.518Z,15.27
2023-05-07T16:33:50.384Z,15.13
2023-05-07T16:36:19.826Z,15.26
2023-05-07T16:38:49.346Z,15.19
2023-05-07T16:41:18.922Z,15.36
2023-05-07T16:43:48.009Z,15.20
2023-05-07T16:46:17.575Z,15.31
2023-05-07T16:48:46.797Z,15.22
2023-05-07T16:51:17.268Z,15.28
2023-05-07T16:53:46.570Z,15.33
2023-05-07T16:56:15.765Z,15.03
2023-05-07T16:58:45.027Z,15.27
2023-05-07T17:01:15.295Z,15.22
2023-05-07T17:03:44.510Z,15.36
2023-05-07T17:06:15.222Z,15.12
2023-05-07T17:08:45.996Z,15.06
2023-05-07T17:11:15.138Z,15.06
2023-05-07T17:13:44.364Z,14.97
2023-05-07T17:16:13.578Z,15.01
2023-05-07T17:18:43.009Z,15.15
2023-05-07T17:21:12.114Z,14.91
2023-05-07T17:23:41.230Z,14.90
2023-05-07T17:26:15.313Z,14.96
2023-05-07T17:28:44.683Z,14.86
2023-05-07T17:31:13.866Z,14.94
2023-05-07T17:33:43.089Z,14.79
2023-05-07T17:36:12.241Z,14.81
2023-05-07T17:38:41.314Z,14.71
2023-05-07T17:41:10.435Z,14.47
2023-05-07T17:43:40.960Z,14.59
2023-05-07T17:46:10.611Z,14.58
2023-05-07T17:48:39.707Z,14.63
2023-05-07T17:51:08.753Z,14.70
2023-05-07T17:53:37.880Z,14.51
2023-05-07T17:56:07.073Z,14.42
2023-05-07T17:58:46.863Z,14.27
2023-05-07T18:01:26.921Z,14.15
2023-05-07T18:03:56.419Z,14.21
2023-05-07T18:06:25.861Z,14.13
2023-05-07T18:08:55.319Z,14.09
2023-05-07T18:11:25.178Z,14.04
2023-05-07T18:13:54.439Z,14.03
2023-05-07T18:16:23.703Z,13.90
2023-05-07T18:18:55.547Z,13.90
2023-05-07T18:21:24.766Z,13.82
2023-05-07T18:23:53.903Z,13.64
2023-05-07T18:26:23.029Z,13.69
2023-05-07T18:28:52.162Z,13.69
2023-05-07T18:31:21.607Z,13.58
2023-05-07T18:33:55.901Z,13.50
2023-05-07T18:36:27.022Z,13.31
2023-05-07T18:38:56.118Z,13.36
2023-05-07T18:41:25.249Z,13.21
2023-05-07T18:43:54.435Z,13.28
2023-05-07T18:46:23.651Z,13.16
2023-05-07T18:48:54.922Z,13.00
2023-05-07T18:51:24.123Z,13.19
2023-05-07T18:53:53.192Z,13.04
2023-05-07T18:56:22.251Z,12.95
2023-05-07T18:58:51.348Z,12.89
2023-05-07T19:01:20.548Z,12.88
2023-05-07T19:03:49.884Z,12.90
2023-05-07T19:06:21.226Z,12.84
2023-05-07T19:08:50.434Z,12.92
2023-05-07T19:11:19.687Z,12.79
2023-05-07T19:13:48.746Z,12.69
2023-05-07T19:16:18.004Z,12.56
2023-05-07T19:18:47.212Z,12.40
2023-05-07T19:21:16.350Z,12.45
2023-05-07T19:23:46.751Z,12.28
2023-05-07T19:26:15.855Z,12.34
2023-05-07T19:28:45.895Z,12.33
2023-05-07T19:31:21.402Z,12.27
2023-05-07T19:33:50.664Z,12.20
2023-05-07T19:36:19.945Z,12.10
2023-05-07T19:38:53.074Z,12.07
2023-05-07T19:41:22.986Z,11.90
2023-05-07T19:43:52.076Z,11.81
2023-05-07T19:46:21.270Z,11.66
2023-05-07T19:48:50.528Z,11.61
2023-05-07T19:51:19.617Z,11.51
2023-05-07T19:53:50.095Z,11.46
2023-05-07T19:56:19.169Z,11.35
2023-05-07T19:58:48.381Z,11.34
2023-05-07T20:01:17.530Z,11.37
2023-05-07T20:03:47.292Z,11.27
2023-05-07T20:06:16.435Z,11.25
2023-05-07T20:08:46.096Z,11.18
2023-05-07T20:11:16.562Z,11.11
2023-05-07T20:13:45.686Z,11.06
2023-05-07T20:16:14.764Z,10.99
2023-05-07T20:18:43.915Z,11.00
2023-05-07T20:21:13.220Z,10.95
2023-05-07T20:23:42.277Z,11.11
2023-05-07T20:26:11.422Z,11.12
2023-05-07T20:28:41.861Z,11.00
2023-05-07T20:31:10.940Z,10.90
2023-05-07T20:33:40.909Z,10.76
2023-05-07T20:36:10.178Z,10.66
2023-05-07T20:38:39.323Z,10.60
2023-05-07T20:41:09.065Z,10.56
2023-05-07T20:43:38.608Z,10.50
2023-05-07T20:46:09.185Z,10.34
2023-05-07T20:48:38.426Z,10.35
2023-05-07T20:51:10.336Z,10.31
2023-05-07T20:53:40.592Z,10.31
2023-05-07T20:56:09.775Z,10.31
2023-05-07T20:58:38.864Z,10.30
2023-05-07T21:01:09.532Z,10.25
2023-05-07T21:03:38.816Z,10.32
2023-05-07T21:06:08.042Z,10.29
2023-05-07T21:08:37.106Z,10.38
2023-05-07T21:11:06.390Z,10.33
2023-05-07T21:13:35.578Z,10.29
2023-05-07T21:16:04.885Z,10.31
2023-05-07T21:18:35.440Z,10.33
2023-05-07T21:21:09.270Z,10.45
2023-05-07T21:23:38.716Z,10.51
2023-05-07T21:26:07.778Z,10.47
2023-05-07T21:28:36.836Z,10.49
2023-05-07T21:31:05.950Z,10.43
2023-05-07T21:33:36.521Z,10.50
2023-05-07T21:36:06.225Z,10.44
2023-05-07T21:38:35.297Z,10.26
2023-05-07T21:41:04.675Z,10.38
2023-05-07T21:43:34.046Z,10.43
2023-05-07T21:46:07.263Z,10.33
2023-05-07T21:48:37.962Z,10.33
2023-05-07T21:51:08.575Z,10.28
2023-05-07T21:53:37.894Z,10.21
2023-05-07T21:56:07.498Z,10.22
2023-05-07T21:58:36.612Z,10.32
2023-05-07T22:01:06.128Z,10.34
2023-05-07T22:03:35.396Z,10.23
2023-05-07T22:06:06.354Z,10.63
2023-05-07T22:08:35.549Z,10.77
2023-05-07T22:11:04.711Z,10.69
2023-05-07T22:13:33.808Z,10.65
2023-05-07T22:16:02.923Z,10.76
2023-05-07T22:18:32.068Z,10.65
2023-05-07T22:21:01.199Z,10.82
2023-05-07T22:23:31.768Z,10.85
2023-05-07T22:26:00.819Z,11.04
2023-05-07T22:28:29.843Z,10.79
2023-05-07T22:30:58.890Z,10.64
2023-05-07T22:33:27.970Z,10.62
2023-05-07T22:35:57.167Z,10.59
2023-05-07T22:38:26.383Z,10.65
2023-05-07T22:40:56.972Z,10.68
2023-05-07T22:43:26.067Z,10.71
2023-05-07T22:46:00.976Z,10.47
2023-05-07T22:48:30.494Z,10.35
2023-05-07T22:50:59.607Z,10.46
2023-05-07T22:53:28.663Z,10.36
2023-05-07T22:55:59.490Z,10.25
2023-05-07T22:58:28.521Z,10.44
2023-05-07T23:00:57.613Z,10.31
2023-05-07T23:03:26.852Z,10.38
2023-05-07T23:05:56.003Z,10.30
2023-05-07T23:08:26.298Z,10.25
2023-05-07T23:10:55.482Z,10.17
2023-05-07T23:13:25.951Z,10.15
2023-05-07T23:15:55.046Z,10.03
2023-05-07T23:18:24.130Z,9.93
2023-05-07T23:20:53.184Z,9.89
2023-05-07T23:23:22.310Z,9.92
2023-05-07T23:25:53.343Z,9.80
2023-05-07T23:28:22.416Z,9.81
2023-05-07T23:30:52.821Z,9.65
2023-05-07T23:33:21.910Z,9.59
2023-05-07T23:35:51.047Z,9.67
2023-05-07T23:38:20.076Z,9.51
2023-05-07T23:40:49.130Z,9.71
2023-05-07T23:43:18.153Z,9.70
2023-05-07T23:45:47.283Z,9.73
2023-05-07T23:48:17.933Z,9.67
2023-05-07T23:50:47.205Z,9.46
2023-05-07T23:53:16.266Z,9.66
2023-05-07T23:55:45.369Z,9.49
2023-05-07T23:58:14.506Z,9.60
